sensor_id;sensor_type;location;lat;lon;timestamp;P1;durP1;ratioP1;P2;durP2;ratioP2
1719;SDS011;857;52.872;9.692;2024-01-30T00:00:46;5.17;;;4.30;;
1719;SDS011;857;52.872;9.692;2024-01-30T00:03:14;7.40;;;4.80;;
1719;SDS011;857;52.872;9.692;2024-01-30T00:05:42;7.63;;;4.73;;
1719;SDS011;857;52.872;9.692;2024-01-30T00:08:09;7.13;;;4.47;;
1719;SDS011;857;52.872;9.692;2024-01-30T00:10:37;5.80;;;4.27;;
1719;SDS011;857;52.872;9.692;2024-01-30T00:13:06;6.00;;;4.10;;
1719;SDS011;857;52.872;9.692;2024-01-30T00:15:34;7.13;;;4.40;;
1719;SDS011;857;52.872;9.692;2024-01-30T00:18:03;8.30;;;4.90;;
1719;SDS011;857;52.872;9.692;2024-01-30T00:20:31;5.20;;;4.00;;
1719;SDS011;857;52.872;9.692;2024-01-30T00:22:58;7.47;;;4.50;;
1719;SDS011;857;52.872;9.692;2024-01-30T00:25:27;5.80;;;4.30;;
1719;SDS011;857;52.872;9.692;2024-01-30T00:27:54;6.53;;;4.37;;
1719;SDS011;857;52.872;9.692;2024-01-30T00:30:22;5.33;;;4.40;;
1719;SDS011;857;52.872;9.692;2024-01-30T00:32:50;7.10;;;4.30;;
1719;SDS011;857;52.872;9.692;2024-01-30T00:35:19;7.57;;;4.00;;
1719;SDS011;857;52.872;9.692;2024-01-30T00:37:48;5.57;;;4.37;;
1719;SDS011;857;52.872;9.692;2024-01-30T00:40:15;8.50;;;4.27;;
1719;SDS011;857;52.872;9.692;2024-01-30T00:42:43;8.87;;;4.77;;
1719;SDS011;857;52.872;9.692;2024-01-30T00:45:11;6.27;;;4.43;;
1719;SDS011;857;52.872;9.692;2024-01-30T00:47:39;6.50;;;4.33;;
1719;SDS011;857;52.872;9.692;2024-01-30T00:50:07;11.00;;;4.23;;
1719;SDS011;857;52.872;9.692;2024-01-30T00:52:36;12.33;;;5.00;;
1719;SDS011;857;52.872;9.692;2024-01-30T00:55:07;10.17;;;5.23;;
1719;SDS011;857;52.872;9.692;2024-01-30T00:57:34;8.40;;;4.80;;
1719;SDS011;857;52.872;9.692;2024-01-30T01:00:02;7.37;;;4.70;;
1719;SDS011;857;52.872;9.692;2024-01-30T01:02:31;5.77;;;4.03;;
1719;SDS011;857;52.872;9.692;2024-01-30T01:04:59;8.67;;;4.50;;
1719;SDS011;857;52.872;9.692;2024-01-30T01:07:27;8.37;;;4.97;;
1719;SDS011;857;52.872;9.692;2024-01-30T01:09:56;9.93;;;5.93;;
1719;SDS011;857;52.872;9.692;2024-01-30T01:12:23;5.13;;;4.10;;
1719;SDS011;857;52.872;9.692;2024-01-30T01:14:51;7.20;;;4.70;;
1719;SDS011;857;52.872;9.692;2024-01-30T01:17:19;8.50;;;5.30;;
1719;SDS011;857;52.872;9.692;2024-01-30T01:19:47;8.67;;;5.50;;
1719;SDS011;857;52.872;9.692;2024-01-30T01:22:15;8.00;;;5.23;;
1719;SDS011;857;52.872;9.692;2024-01-30T01:24:44;8.83;;;5.27;;
1719;SDS011;857;52.872;9.692;2024-01-30T01:27:13;7.33;;;5.43;;
1719;SDS011;857;52.872;9.692;2024-01-30T01:29:40;9.53;;;5.63;;
1719;SDS011;857;52.872;9.692;2024-01-30T01:32:08;10.00;;;6.57;;
1719;SDS011;857;52.872;9.692;2024-01-30T01:34:36;9.97;;;5.00;;
1719;SDS011;857;52.872;9.692;2024-01-30T01:37:04;7.60;;;5.70;;
1719;SDS011;857;52.872;9.692;2024-01-30T01:39:32;8.83;;;5.10;;
1719;SDS011;857;52.872;9.692;2024-01-30T01:42:00;9.23;;;6.10;;
1719;SDS011;857;52.872;9.692;2024-01-30T01:44:29;8.63;;;5.23;;
1719;SDS011;857;52.872;9.692;2024-01-30T01:46:57;9.57;;;5.10;;
1719;SDS011;857;52.872;9.692;2024-01-30T01:49:25;6.90;;;4.20;;
1719;SDS011;857;52.872;9.692;2024-01-30T01:51:55;7.47;;;4.93;;
1719;SDS011;857;52.872;9.692;2024-01-30T01:54:24;10.20;;;4.97;;
1719;SDS011;857;52.872;9.692;2024-01-30T01:56:53;7.57;;;5.47;;
1719;SDS011;857;52.872;9.692;2024-01-30T02:01:57;9.23;;;4.67;;
1719;SDS011;857;52.872;9.692;2024-01-30T02:04:25;7.30;;;5.27;;
1719;SDS011;857;52.872;9.692;2024-01-30T02:06:53;8.23;;;4.63;;
1719;SDS011;857;52.872;9.692;2024-01-30T02:09:21;8.40;;;4.87;;
1719;SDS011;857;52.872;9.692;2024-01-30T02:11:48;9.67;;;5.40;;
1719;SDS011;857;52.872;9.692;2024-01-30T02:14:16;11.80;;;4.70;;
1719;SDS011;857;52.872;9.692;2024-01-30T02:16:44;7.17;;;4.90;;
1719;SDS011;857;52.872;9.692;2024-01-30T02:19:13;8.70;;;4.90;;
1719;SDS011;857;52.872;9.692;2024-01-30T02:21:42;9.33;;;5.40;;
1719;SDS011;857;52.872;9.692;2024-01-30T02:24:10;9.10;;;5.67;;
1719;SDS011;857;52.872;9.692;2024-01-30T02:26:38;9.60;;;5.43;;
1719;SDS011;857;52.872;9.692;2024-01-30T02:29:06;9.00;;;5.40;;
1719;SDS011;857;52.872;9.692;2024-01-30T02:31:33;7.53;;;5.43;;
1719;SDS011;857;52.872;9.692;2024-01-30T02:34:01;7.87;;;5.70;;
1719;SDS011;857;52.872;9.692;2024-01-30T02:36:29;8.07;;;5.33;;
1719;SDS011;857;52.872;9.692;2024-01-30T02:38:58;9.30;;;5.43;;
1719;SDS011;857;52.872;9.692;2024-01-30T02:41:26;10.43;;;6.17;;
1719;SDS011;857;52.872;9.692;2024-01-30T02:43:53;12.07;;;6.83;;
1719;SDS011;857;52.872;9.692;2024-01-30T02:46:21;9.27;;;5.60;;
1719;SDS011;857;52.872;9.692;2024-01-30T02:48:49;9.17;;;5.67;;
1719;SDS011;857;52.872;9.692;2024-01-30T02:51:16;9.30;;;6.00;;
1719;SDS011;857;52.872;9.692;2024-01-30T02:53:44;18.90;;;5.93;;
1719;SDS011;857;52.872;9.692;2024-01-30T02:56:13;9.10;;;5.20;;
1719;SDS011;857;52.872;9.692;2024-01-30T02:58:41;8.67;;;5.63;;
1719;SDS011;857;52.872;9.692;2024-01-30T03:01:09;9.90;;;6.33;;
1719;SDS011;857;52.872;9.692;2024-01-30T03:03:36;10.13;;;6.97;;
1719;SDS011;857;52.872;9.692;2024-01-30T03:06:06;9.97;;;6.13;;
1719;SDS011;857;52.872;9.692;2024-01-30T03:08:34;8.97;;;5.90;;
1719;SDS011;857;52.872;9.692;2024-01-30T03:11:03;9.60;;;6.20;;
1719;SDS011;857;52.872;9.692;2024-01-30T03:13:32;7.93;;;5.77;;
1719;SDS011;857;52.872;9.692;2024-01-30T03:16:00;11.53;;;6.80;;
1719;SDS011;857;52.872;9.692;2024-01-30T03:18:28;8.73;;;6.63;;
1719;SDS011;857;52.872;9.692;2024-01-30T03:20:56;8.17;;;6.10;;
1719;SDS011;857;52.872;9.692;2024-01-30T03:23:23;10.83;;;7.20;;
1719;SDS011;857;52.872;9.692;2024-01-30T03:25:51;11.03;;;7.17;;
1719;SDS011;857;52.872;9.692;2024-01-30T03:28:19;13.10;;;7.00;;
1719;SDS011;857;52.872;9.692;2024-01-30T03:30:48;13.83;;;7.60;;
1719;SDS011;857;52.872;9.692;2024-01-30T03:33:15;16.20;;;8.53;;
1719;SDS011;857;52.872;9.692;2024-01-30T03:35:43;12.60;;;7.30;;
1719;SDS011;857;52.872;9.692;2024-01-30T03:38:11;11.57;;;7.00;;
1719;SDS011;857;52.872;9.692;2024-01-30T03:40:38;11.13;;;6.57;;
1719;SDS011;857;52.872;9.692;2024-01-30T03:43:06;11.87;;;7.37;;
1719;SDS011;857;52.872;9.692;2024-01-30T03:45:34;10.77;;;6.97;;
1719;SDS011;857;52.872;9.692;2024-01-30T03:48:03;18.20;;;6.70;;
1719;SDS011;857;52.872;9.692;2024-01-30T03:50:31;10.83;;;7.40;;
1719;SDS011;857;52.872;9.692;2024-01-30T03:52:59;12.00;;;8.47;;
1719;SDS011;857;52.872;9.692;2024-01-30T03:55:27;13.03;;;9.60;;
1719;SDS011;857;52.872;9.692;2024-01-30T03:57:54;17.17;;;10.37;;
1719;SDS011;857;52.872;9.692;2024-01-30T04:00:22;16.00;;;7.37;;
1719;SDS011;857;52.872;9.692;2024-01-30T04:02:50;17.37;;;8.30;;
1719;SDS011;857;52.872;9.692;2024-01-30T04:05:19;14.07;;;6.50;;
1719;SDS011;857;52.872;9.692;2024-01-30T04:07:46;14.00;;;7.87;;
1719;SDS011;857;52.872;9.692;2024-01-30T04:10:14;14.23;;;8.03;;
1719;SDS011;857;52.872;9.692;2024-01-30T04:12:42;11.50;;;7.30;;
1719;SDS011;857;52.872;9.692;2024-01-30T04:15:09;11.10;;;6.60;;
1719;SDS011;857;52.872;9.692;2024-01-30T04:17:39;11.83;;;7.63;;
1719;SDS011;857;52.872;9.692;2024-01-30T04:20:07;12.60;;;7.67;;
1719;SDS011;857;52.872;9.692;2024-01-30T04:22:36;13.93;;;8.03;;
1719;SDS011;857;52.872;9.692;2024-01-30T04:25:04;11.70;;;8.27;;
1719;SDS011;857;52.872;9.692;2024-01-30T04:27:31;14.20;;;9.10;;
1719;SDS011;857;52.872;9.692;2024-01-30T04:29:59;16.00;;;8.60;;
1719;SDS011;857;52.872;9.692;2024-01-30T04:32:27;12.97;;;8.67;;
1719;SDS011;857;52.872;9.692;2024-01-30T04:34:54;12.67;;;8.00;;
1719;SDS011;857;52.872;9.692;2024-01-30T04:37:22;14.27;;;7.20;;
1719;SDS011;857;52.872;9.692;2024-01-30T04:39:51;13.37;;;8.20;;
1719;SDS011;857;52.872;9.692;2024-01-30T04:42:19;11.67;;;8.43;;
1719;SDS011;857;52.872;9.692;2024-01-30T04:44:47;11.93;;;7.50;;
1719;SDS011;857;52.872;9.692;2024-01-30T04:47:15;11.33;;;6.57;;
1719;SDS011;857;52.872;9.692;2024-01-30T04:49:43;12.97;;;8.80;;
1719;SDS011;857;52.872;9.692;2024-01-30T04:52:10;15.80;;;8.30;;
1719;SDS011;857;52.872;9.692;2024-01-30T04:54:38;12.50;;;8.23;;
1719;SDS011;857;52.872;9.692;2024-01-30T04:57:07;12.00;;;7.80;;
1719;SDS011;857;52.872;9.692;2024-01-30T04:59:38;14.20;;;8.70;;
1719;SDS011;857;52.872;9.692;2024-01-30T05:02:05;13.10;;;8.40;;
1719;SDS011;857;52.872;9.692;2024-01-30T05:04:33;13.63;;;8.80;;
1719;SDS011;857;52.872;9.692;2024-01-30T05:07:01;17.00;;;8.77;;
1719;SDS011;857;52.872;9.692;2024-01-30T05:09:29;14.93;;;8.40;;
1719;SDS011;857;52.872;9.692;2024-01-30T05:11:56;15.70;;;9.03;;
1719;SDS011;857;52.872;9.692;2024-01-30T05:14:25;14.43;;;8.27;;
1719;SDS011;857;52.872;9.692;2024-01-30T05:16:53;12.87;;;7.90;;
1719;SDS011;857;52.872;9.692;2024-01-30T05:19:21;11.63;;;8.53;;
1719;SDS011;857;52.872;9.692;2024-01-30T05:21:49;13.50;;;8.33;;
1719;SDS011;857;52.872;9.692;2024-01-30T05:24:16;17.23;;;10.13;;
1719;SDS011;857;52.872;9.692;2024-01-30T05:26:44;18.00;;;12.10;;
1719;SDS011;857;52.872;9.692;2024-01-30T05:29:13;19.47;;;10.27;;
1719;SDS011;857;52.872;9.692;2024-01-30T05:31:42;13.67;;;10.13;;
1719;SDS011;857;52.872;9.692;2024-01-30T05:34:10;15.90;;;10.13;;
1719;SDS011;857;52.872;9.692;2024-01-30T05:36:38;14.53;;;8.60;;
1719;SDS011;857;52.872;9.692;2024-01-30T05:39:05;15.03;;;8.37;;
1719;SDS011;857;52.872;9.692;2024-01-30T05:41:33;15.37;;;9.50;;
1719;SDS011;857;52.872;9.692;2024-01-30T05:44:01;15.73;;;8.77;;
1719;SDS011;857;52.872;9.692;2024-01-30T05:46:29;14.53;;;9.33;;
1719;SDS011;857;52.872;9.692;2024-01-30T05:48:58;14.07;;;10.53;;
1719;SDS011;857;52.872;9.692;2024-01-30T05:51:25;14.50;;;9.63;;
1719;SDS011;857;52.872;9.692;2024-01-30T05:53:53;19.47;;;10.63;;
1719;SDS011;857;52.872;9.692;2024-01-30T05:56:21;17.03;;;11.20;;
1719;SDS011;857;52.872;9.692;2024-01-30T05:58:49;20.83;;;10.87;;
1719;SDS011;857;52.872;9.692;2024-01-30T06:01:17;16.37;;;10.40;;
1719;SDS011;857;52.872;9.692;2024-01-30T06:03:44;13.03;;;10.37;;
1719;SDS011;857;52.872;9.692;2024-01-30T06:06:13;17.17;;;10.30;;
1719;SDS011;857;52.872;9.692;2024-01-30T06:08:41;15.57;;;11.00;;
1719;SDS011;857;52.872;9.692;2024-01-30T06:11:10;15.17;;;9.50;;
1719;SDS011;857;52.872;9.692;2024-01-30T06:13:37;14.67;;;9.90;;
1719;SDS011;857;52.872;9.692;2024-01-30T06:16:08;16.30;;;9.73;;
1719;SDS011;857;52.872;9.692;2024-01-30T06:18:36;18.43;;;11.13;;
1719;SDS011;857;52.872;9.692;2024-01-30T06:21:04;19.33;;;11.70;;
1719;SDS011;857;52.872;9.692;2024-01-30T06:23:33;21.77;;;11.30;;
1719;SDS011;857;52.872;9.692;2024-01-30T06:26:00;17.80;;;10.97;;
1719;SDS011;857;52.872;9.692;2024-01-30T06:28:29;17.10;;;11.27;;
1719;SDS011;857;52.872;9.692;2024-01-30T06:30:56;15.77;;;10.70;;
1719;SDS011;857;52.872;9.692;2024-01-30T06:33:24;17.70;;;10.80;;
1719;SDS011;857;52.872;9.692;2024-01-30T06:35:52;18.50;;;12.00;;
1719;SDS011;857;52.872;9.692;2024-01-30T06:38:19;19.83;;;11.67;;
1719;SDS011;857;52.872;9.692;2024-01-30T06:40:48;20.30;;;12.60;;
1719;SDS011;857;52.872;9.692;2024-01-30T06:43:16;17.73;;;11.63;;
1719;SDS011;857;52.872;9.692;2024-01-30T06:45:44;21.27;;;12.13;;
1719;SDS011;857;52.872;9.692;2024-01-30T06:48:12;23.30;;;12.97;;
1719;SDS011;857;52.872;9.692;2024-01-30T06:50:39;18.80;;;11.13;;
1719;SDS011;857;52.872;9.692;2024-01-30T06:53:07;19.37;;;11.20;;
1719;SDS011;857;52.872;9.692;2024-01-30T06:55:35;17.83;;;11.57;;
1719;SDS011;857;52.872;9.692;2024-01-30T06:58:04;20.40;;;12.20;;
1719;SDS011;857;52.872;9.692;2024-01-30T07:00:32;16.90;;;11.07;;
1719;SDS011;857;52.872;9.692;2024-01-30T07:03:00;22.73;;;12.70;;
1719;SDS011;857;52.872;9.692;2024-01-30T07:05:27;16.93;;;11.70;;
1719;SDS011;857;52.872;9.692;2024-01-30T07:07:55;23.57;;;13.27;;
1719;SDS011;857;52.872;9.692;2024-01-30T07:10:23;21.30;;;12.37;;
1719;SDS011;857;52.872;9.692;2024-01-30T07:12:50;21.60;;;13.40;;
1719;SDS011;857;52.872;9.692;2024-01-30T07:15:19;24.80;;;13.53;;
1719;SDS011;857;52.872;9.692;2024-01-30T07:17:47;19.27;;;12.07;;
1719;SDS011;857;52.872;9.692;2024-01-30T07:20:15;19.27;;;11.67;;
1719;SDS011;857;52.872;9.692;2024-01-30T07:22:45;21.23;;;12.57;;
1719;SDS011;857;52.872;9.692;2024-01-30T07:25:13;21.40;;;13.23;;
1719;SDS011;857;52.872;9.692;2024-01-30T07:27:42;25.70;;;14.07;;
1719;SDS011;857;52.872;9.692;2024-01-30T07:30:10;22.93;;;13.37;;
1719;SDS011;857;52.872;9.692;2024-01-30T07:32:39;20.83;;;12.97;;
1719;SDS011;857;52.872;9.692;2024-01-30T07:35:07;23.47;;;13.47;;
1719;SDS011;857;52.872;9.692;2024-01-30T07:37:34;27.57;;;14.57;;
1719;SDS011;857;52.872;9.692;2024-01-30T07:40:02;29.37;;;16.63;;
1719;SDS011;857;52.872;9.692;2024-01-30T07:42:30;27.63;;;15.93;;
1719;SDS011;857;52.872;9.692;2024-01-30T07:44:58;30.13;;;14.23;;
1719;SDS011;857;52.872;9.692;2024-01-30T07:47:26;22.90;;;13.13;;
1719;SDS011;857;52.872;9.692;2024-01-30T07:49:55;21.60;;;12.83;;
1719;SDS011;857;52.872;9.692;2024-01-30T07:52:23;17.93;;;11.83;;
1719;SDS011;857;52.872;9.692;2024-01-30T07:54:51;22.10;;;14.20;;
1719;SDS011;857;52.872;9.692;2024-01-30T07:57:18;22.33;;;12.37;;
1719;SDS011;857;52.872;9.692;2024-01-30T07:59:46;20.70;;;12.27;;
1719;SDS011;857;52.872;9.692;2024-01-30T08:02:13;24.77;;;13.10;;
1719;SDS011;857;52.872;9.692;2024-01-30T08:04:41;18.20;;;12.10;;
1719;SDS011;857;52.872;9.692;2024-01-30T08:07:10;22.27;;;12.30;;
1719;SDS011;857;52.872;9.692;2024-01-30T08:09:38;22.07;;;13.43;;
1719;SDS011;857;52.872;9.692;2024-01-30T08:12:06;22.50;;;12.90;;
1719;SDS011;857;52.872;9.692;2024-01-30T08:14:34;25.27;;;13.77;;
1719;SDS011;857;52.872;9.692;2024-01-30T08:17:01;22.20;;;13.00;;
1719;SDS011;857;52.872;9.692;2024-01-30T08:19:29;21.70;;;12.67;;
1719;SDS011;857;52.872;9.692;2024-01-30T08:21:57;32.47;;;13.90;;
1719;SDS011;857;52.872;9.692;2024-01-30T08:24:26;21.20;;;13.37;;
1719;SDS011;857;52.872;9.692;2024-01-30T08:26:53;21.27;;;13.90;;
1719;SDS011;857;52.872;9.692;2024-01-30T08:29:21;18.10;;;12.73;;
1719;SDS011;857;52.872;9.692;2024-01-30T08:31:49;21.17;;;13.27;;
1719;SDS011;857;52.872;9.692;2024-01-30T08:34:16;22.50;;;12.77;;
1719;SDS011;857;52.872;9.692;2024-01-30T08:36:44;21.10;;;12.23;;
1719;SDS011;857;52.872;9.692;2024-01-30T08:39:12;22.83;;;12.90;;
1719;SDS011;857;52.872;9.692;2024-01-30T08:41:41;24.73;;;13.90;;
1719;SDS011;857;52.872;9.692;2024-01-30T08:44:09;24.47;;;13.50;;
1719;SDS011;857;52.872;9.692;2024-01-30T08:46:37;22.73;;;14.33;;
1719;SDS011;857;52.872;9.692;2024-01-30T08:49:05;23.57;;;15.60;;
1719;SDS011;857;52.872;9.692;2024-01-30T08:51:33;24.40;;;14.43;;
1719;SDS011;857;52.872;9.692;2024-01-30T08:54:01;24.70;;;14.37;;
1719;SDS011;857;52.872;9.692;2024-01-30T08:56:28;24.90;;;14.17;;
1719;SDS011;857;52.872;9.692;2024-01-30T08:58:58;16.50;;;10.33;;
1719;SDS011;857;52.872;9.692;2024-01-30T09:01:25;28.07;;;14.20;;
1719;SDS011;857;52.872;9.692;2024-01-30T09:03:53;21.83;;;13.83;;
1719;SDS011;857;52.872;9.692;2024-01-30T09:06:21;23.67;;;15.27;;
1719;SDS011;857;52.872;9.692;2024-01-30T09:08:49;16.00;;;10.97;;
1719;SDS011;857;52.872;9.692;2024-01-30T09:11:17;22.47;;;14.47;;
1719;SDS011;857;52.872;9.692;2024-01-30T09:13:45;28.33;;;16.37;;
1719;SDS011;857;52.872;9.692;2024-01-30T09:16:14;28.93;;;14.63;;
1719;SDS011;857;52.872;9.692;2024-01-30T09:18:42;28.00;;;15.67;;
1719;SDS011;857;52.872;9.692;2024-01-30T09:21:10;25.00;;;15.40;;
1719;SDS011;857;52.872;9.692;2024-01-30T09:23:38;26.90;;;17.50;;
1719;SDS011;857;52.872;9.692;2024-01-30T09:26:05;20.50;;;11.73;;
1719;SDS011;857;52.872;9.692;2024-01-30T09:28:33;22.00;;;13.30;;
1719;SDS011;857;52.872;9.692;2024-01-30T09:31:01;12.33;;;7.00;;
1719;SDS011;857;52.872;9.692;2024-01-30T09:33:30;20.83;;;13.93;;
1719;SDS011;857;52.872;9.692;2024-01-30T09:35:58;7.40;;;5.97;;
1719;SDS011;857;52.872;9.692;2024-01-30T09:38:25;10.00;;;5.97;;
1719;SDS011;857;52.872;9.692;2024-01-30T09:40:53;18.20;;;11.63;;
1719;SDS011;857;52.872;9.692;2024-01-30T09:43:23;11.83;;;7.63;;
1719;SDS011;857;52.872;9.692;2024-01-30T09:45:51;17.10;;;9.57;;
1719;SDS011;857;52.872;9.692;2024-01-30T09:48:20;14.90;;;11.03;;
1719;SDS011;857;52.872;9.692;2024-01-30T09:50:50;19.10;;;10.83;;
1719;SDS011;857;52.872;9.692;2024-01-30T09:53:19;19.80;;;12.20;;
1719;SDS011;857;52.872;9.692;2024-01-30T09:55:47;9.60;;;6.00;;
1719;SDS011;857;52.872;9.692;2024-01-30T09:58:17;20.30;;;11.37;;
1719;SDS011;857;52.872;9.692;2024-01-30T10:00:45;22.03;;;12.07;;
1719;SDS011;857;52.872;9.692;2024-01-30T10:03:13;17.10;;;11.70;;
1719;SDS011;857;52.872;9.692;2024-01-30T10:05:40;15.80;;;9.33;;
1719;SDS011;857;52.872;9.692;2024-01-30T10:08:10;14.60;;;9.67;;
1719;SDS011;857;52.872;9.692;2024-01-30T10:10:37;21.83;;;12.33;;
1719;SDS011;857;52.872;9.692;2024-01-30T10:13:05;13.33;;;8.67;;
1719;SDS011;857;52.872;9.692;2024-01-30T10:15:33;20.47;;;11.17;;
1719;SDS011;857;52.872;9.692;2024-01-30T10:18:01;15.43;;;8.90;;
1719;SDS011;857;52.872;9.692;2024-01-30T10:20:32;6.47;;;5.10;;
1719;SDS011;857;52.872;9.692;2024-01-30T10:22:59;18.33;;;12.30;;
1719;SDS011;857;52.872;9.692;2024-01-30T10:25:28;7.87;;;5.90;;
1719;SDS011;857;52.872;9.692;2024-01-30T10:27:56;15.23;;;10.27;;
1719;SDS011;857;52.872;9.692;2024-01-30T10:30:24;11.50;;;7.50;;
1719;SDS011;857;52.872;9.692;2024-01-30T10:32:52;12.93;;;9.30;;
1719;SDS011;857;52.872;9.692;2024-01-30T10:35:20;20.17;;;12.70;;
1719;SDS011;857;52.872;9.692;2024-01-30T10:37:47;11.43;;;7.70;;
1719;SDS011;857;52.872;9.692;2024-01-30T10:40:15;5.87;;;4.17;;
1719;SDS011;857;52.872;9.692;2024-01-30T10:42:45;9.60;;;6.73;;
1719;SDS011;857;52.872;9.692;2024-01-30T10:45:13;17.63;;;11.13;;
1719;SDS011;857;52.872;9.692;2024-01-30T10:47:41;6.97;;;5.57;;
1719;SDS011;857;52.872;9.692;2024-01-30T10:50:10;16.00;;;9.90;;
1719;SDS011;857;52.872;9.692;2024-01-30T10:52:39;10.50;;;7.63;;
1719;SDS011;857;52.872;9.692;2024-01-30T10:55:09;7.13;;;4.47;;
1719;SDS011;857;52.872;9.692;2024-01-30T10:57:37;7.90;;;4.83;;
1719;SDS011;857;52.872;9.692;2024-01-30T11:00:07;13.50;;;8.90;;
1719;SDS011;857;52.872;9.692;2024-01-30T11:02:37;16.83;;;9.90;;
1719;SDS011;857;52.872;9.692;2024-01-30T11:05:05;6.73;;;4.50;;
1719;SDS011;857;52.872;9.692;2024-01-30T11:07:34;6.10;;;4.60;;
1719;SDS011;857;52.872;9.692;2024-01-30T11:10:02;4.90;;;3.77;;
1719;SDS011;857;52.872;9.692;2024-01-30T11:12:31;14.90;;;9.87;;
1719;SDS011;857;52.872;9.692;2024-01-30T11:15:03;6.03;;;4.23;;
1719;SDS011;857;52.872;9.692;2024-01-30T11:17:42;13.00;;;7.17;;
1719;SDS011;857;52.872;9.692;2024-01-30T11:20:11;14.80;;;9.47;;
1719;SDS011;857;52.872;9.692;2024-01-30T11:22:44;5.93;;;4.77;;
1719;SDS011;857;52.872;9.692;2024-01-30T11:25:12;11.20;;;8.50;;
1719;SDS011;857;52.872;9.692;2024-01-30T11:27:41;5.70;;;4.30;;
1719;SDS011;857;52.872;9.692;2024-01-30T11:30:08;5.60;;;4.13;;
1719;SDS011;857;52.872;9.692;2024-01-30T11:32:36;7.53;;;6.07;;
1719;SDS011;857;52.872;9.692;2024-01-30T11:35:06;5.20;;;4.00;;
1719;SDS011;857;52.872;9.692;2024-01-30T11:37:36;4.80;;;3.70;;
1719;SDS011;857;52.872;9.692;2024-01-30T11:40:05;5.17;;;3.60;;
1719;SDS011;857;52.872;9.692;2024-01-30T11:42:34;4.73;;;3.83;;
1719;SDS011;857;52.872;9.692;2024-01-30T11:45:05;6.67;;;4.57;;
1719;SDS011;857;52.872;9.692;2024-01-30T11:47:34;22.00;;;12.87;;
1719;SDS011;857;52.872;9.692;2024-01-30T11:50:02;11.30;;;8.23;;
1719;SDS011;857;52.872;9.692;2024-01-30T11:52:33;3.57;;;3.20;;
1719;SDS011;857;52.872;9.692;2024-01-30T11:55:01;6.17;;;4.43;;
1719;SDS011;857;52.872;9.692;2024-01-30T11:57:29;8.83;;;6.90;;
1719;SDS011;857;52.872;9.692;2024-01-30T11:59:57;10.80;;;7.80;;
1719;SDS011;857;52.872;9.692;2024-01-30T12:02:24;14.43;;;9.43;;
1719;SDS011;857;52.872;9.692;2024-01-30T12:04:53;7.30;;;4.93;;
1719;SDS011;857;52.872;9.692;2024-01-30T12:07:20;7.30;;;5.47;;
1719;SDS011;857;52.872;9.692;2024-01-30T12:09:53;6.30;;;4.20;;
1719;SDS011;857;52.872;9.692;2024-01-30T12:12:21;8.67;;;5.83;;
1719;SDS011;857;52.872;9.692;2024-01-30T12:14:50;15.23;;;8.37;;
1719;SDS011;857;52.872;9.692;2024-01-30T12:17:23;8.97;;;6.53;;
1719;SDS011;857;52.872;9.692;2024-01-30T12:19:50;14.50;;;8.43;;
1719;SDS011;857;52.872;9.692;2024-01-30T12:22:20;11.57;;;7.53;;
1719;SDS011;857;52.872;9.692;2024-01-30T12:24:47;8.27;;;6.67;;
1719;SDS011;857;52.872;9.692;2024-01-30T12:27:17;10.97;;;7.90;;
1719;SDS011;857;52.872;9.692;2024-01-30T12:29:45;6.30;;;4.67;;
1719;SDS011;857;52.872;9.692;2024-01-30T12:32:15;14.07;;;8.03;;
1719;SDS011;857;52.872;9.692;2024-01-30T12:34:42;5.37;;;4.00;;
1719;SDS011;857;52.872;9.692;2024-01-30T12:37:10;12.50;;;8.33;;
1719;SDS011;857;52.872;9.692;2024-01-30T12:39:39;10.20;;;7.53;;
1719;SDS011;857;52.872;9.692;2024-01-30T12:42:08;12.20;;;8.10;;
1719;SDS011;857;52.872;9.692;2024-01-30T12:44:37;9.10;;;6.60;;
1719;SDS011;857;52.872;9.692;2024-01-30T12:47:05;14.70;;;8.67;;
1719;SDS011;857;52.872;9.692;2024-01-30T12:49:32;9.10;;;6.73;;
1719;SDS011;857;52.872;9.692;2024-01-30T12:52:00;6.10;;;4.17;;
1719;SDS011;857;52.872;9.692;2024-01-30T12:54:28;4.33;;;3.30;;
1719;SDS011;857;52.872;9.692;2024-01-30T12:56:56;10.90;;;8.20;;
1719;SDS011;857;52.872;9.692;2024-01-30T12:59:23;6.10;;;4.17;;
1719;SDS011;857;52.872;9.692;2024-01-30T13:01:53;6.80;;;5.07;;
1719;SDS011;857;52.872;9.692;2024-01-30T13:04:20;9.33;;;7.17;;
1719;SDS011;857;52.872;9.692;2024-01-30T13:06:48;5.20;;;3.70;;
1719;SDS011;857;52.872;9.692;2024-01-30T13:09:16;60.80;;;33.60;;
1719;SDS011;857;52.872;9.692;2024-01-30T13:11:43;5.00;;;4.13;;
1719;SDS011;857;52.872;9.692;2024-01-30T13:14:11;7.90;;;5.33;;
1719;SDS011;857;52.872;9.692;2024-01-30T13:16:39;4.37;;;3.73;;
1719;SDS011;857;52.872;9.692;2024-01-30T13:19:08;7.47;;;3.20;;
1719;SDS011;857;52.872;9.692;2024-01-30T13:21:36;17.37;;;11.00;;
1719;SDS011;857;52.872;9.692;2024-01-30T13:24:04;14.40;;;8.67;;
1719;SDS011;857;52.872;9.692;2024-01-30T13:26:32;16.20;;;9.43;;
1719;SDS011;857;52.872;9.692;2024-01-30T13:29:00;10.33;;;7.93;;
1719;SDS011;857;52.872;9.692;2024-01-30T13:31:28;11.20;;;7.90;;
1719;SDS011;857;52.872;9.692;2024-01-30T13:33:55;4.70;;;3.40;;
1719;SDS011;857;52.872;9.692;2024-01-30T13:36:24;4.80;;;4.10;;
1719;SDS011;857;52.872;9.692;2024-01-30T13:38:52;4.13;;;2.83;;
1719;SDS011;857;52.872;9.692;2024-01-30T13:41:20;3.47;;;2.47;;
1719;SDS011;857;52.872;9.692;2024-01-30T13:43:48;4.00;;;2.70;;
1719;SDS011;857;52.872;9.692;2024-01-30T13:46:16;9.30;;;6.80;;
1719;SDS011;857;52.872;9.692;2024-01-30T13:48:44;3.73;;;2.83;;
1719;SDS011;857;52.872;9.692;2024-01-30T13:51:11;11.20;;;6.83;;
1719;SDS011;857;52.872;9.692;2024-01-30T13:53:40;6.37;;;3.50;;
1719;SDS011;857;52.872;9.692;2024-01-30T13:56:08;9.80;;;6.60;;
1719;SDS011;857;52.872;9.692;2024-01-30T13:58:36;3.03;;;2.60;;
1719;SDS011;857;52.872;9.692;2024-01-30T14:03:38;3.83;;;2.80;;
1719;SDS011;857;52.872;9.692;2024-01-30T14:06:06;4.33;;;2.90;;
1719;SDS011;857;52.872;9.692;2024-01-30T14:08:34;3.57;;;2.70;;
1719;SDS011;857;52.872;9.692;2024-01-30T14:11:03;2.80;;;2.50;;
1719;SDS011;857;52.872;9.692;2024-01-30T14:13:31;3.67;;;3.23;;
1719;SDS011;857;52.872;9.692;2024-01-30T14:15:59;3.90;;;2.80;;
1719;SDS011;857;52.872;9.692;2024-01-30T14:18:26;4.60;;;3.13;;
1719;SDS011;857;52.872;9.692;2024-01-30T14:20:54;2.63;;;2.13;;
1719;SDS011;857;52.872;9.692;2024-01-30T14:23:22;7.30;;;5.60;;
1719;SDS011;857;52.872;9.692;2024-01-30T14:25:49;4.27;;;2.50;;
1719;SDS011;857;52.872;9.692;2024-01-30T14:28:19;4.13;;;2.67;;
1719;SDS011;857;52.872;9.692;2024-01-30T14:30:47;3.03;;;2.70;;
1719;SDS011;857;52.872;9.692;2024-01-30T14:33:15;3.23;;;2.50;;
1719;SDS011;857;52.872;9.692;2024-01-30T14:35:42;6.87;;;4.60;;
1719;SDS011;857;52.872;9.692;2024-01-30T14:38:10;9.17;;;5.80;;
1719;SDS011;857;52.872;9.692;2024-01-30T14:40:39;11.03;;;6.03;;
1719;SDS011;857;52.872;9.692;2024-01-30T14:43:06;10.77;;;6.70;;
1719;SDS011;857;52.872;9.692;2024-01-30T14:45:35;2.83;;;2.60;;
1719;SDS011;857;52.872;9.692;2024-01-30T14:48:03;3.00;;;2.70;;
1719;SDS011;857;52.872;9.692;2024-01-30T14:50:31;2.43;;;2.20;;
1719;SDS011;857;52.872;9.692;2024-01-30T14:52:59;4.30;;;2.40;;
1719;SDS011;857;52.872;9.692;2024-01-30T14:55:26;3.83;;;3.00;;
1719;SDS011;857;52.872;9.692;2024-01-30T14:57:54;8.63;;;5.43;;
1719;SDS011;857;52.872;9.692;2024-01-30T15:00:22;4.97;;;2.67;;
1719;SDS011;857;52.872;9.692;2024-01-30T15:02:51;2.90;;;2.40;;
1719;SDS011;857;52.872;9.692;2024-01-30T15:05:18;4.60;;;2.30;;
1719;SDS011;857;52.872;9.692;2024-01-30T15:07:46;14.63;;;9.20;;
1719;SDS011;857;52.872;9.692;2024-01-30T15:10:14;6.03;;;4.50;;
1719;SDS011;857;52.872;9.692;2024-01-30T15:12:42;4.10;;;2.50;;
1719;SDS011;857;52.872;9.692;2024-01-30T15:15:09;8.73;;;4.20;;
1719;SDS011;857;52.872;9.692;2024-01-30T15:17:37;11.47;;;8.60;;
1719;SDS011;857;52.872;9.692;2024-01-30T15:20:07;4.00;;;3.27;;
1719;SDS011;857;52.872;9.692;2024-01-30T15:22:35;6.90;;;4.00;;
1719;SDS011;857;52.872;9.692;2024-01-30T15:25:03;8.13;;;4.47;;
1719;SDS011;857;52.872;9.692;2024-01-30T15:27:31;4.53;;;3.00;;